Time;durP1;ratioP1;P1;durP2;ratioP2;P2;SDS_P1;SDS_P2;PMS_P1;PMS_P2;Temp;Humidity;BMP_temperature;BMP_pressure;BME280_temperature;BME280_humidity;BME280_pressure;Samples;Min_cycle;Max_cycle;Signal;HPM_P1;HPM_P2
2022/09/09 00:01:22;;;;;;;1999.90;517.55;;;15.20;99.90;;;;;;5114554;28;20043;-79
2022/09/09 00:04:00;;;;;;;1999.90;561.85;;;15.30;99.90;;;;;;5113330;28;20298;-78
2022/09/09 00:06:31;;;;;;;1999.90;649.83;;;15.40;99.90;;;;;;5114488;28;20032;-78
2022/09/09 00:09:04;;;;;;;1999.90;606.80;;;14.50;99.90;;;;;;5115170;28;20043;-78
2022/09/09 00:12:06;;;;;;;1999.90;447.70;;;15.00;99.90;;;;;;5113938;28;20112;-78
2022/09/09 00:14:48;;;;;;;1975.22;251.15;;;14.50;99.90;;;;;;5113446;28;20472;-78
2022/09/09 00:17:35;;;;;;;1999.90;271.80;;;15.40;99.90;;;;;;5114508;28;20053;-78
2022/09/09 00:20:23;;;;;;;1963.30;787.35;;;15.40;99.90;;;;;;5112574;28;20047;-78
2022/09/09 00:23:01;;;;;;;1924.28;793.10;;;14.40;99.90;;;;;;5113888;28;20035;-78
2022/09/09 00:25:52;;;;;;;1999.90;537.30;;;15.30;99.90;;;;;;5114088;28;20127;-78
2022/09/09 00:28:22;;;;;;;1999.90;405.83;;;14.80;99.90;;;;;;5072166;28;20082;-78
2022/09/09 00:30:48;;;;;;;1999.90;999.90;;;15.10;99.90;;;;;;5113884;28;20039;-78
2022/09/09 00:33:18;;;;;;;1999.90;204.93;;;15.40;99.90;;;;;;5114108;28;20055;-79
2022/09/09 00:35:53;;;;;;;1999.90;498.25;;;14.40;99.90;;;;;;5114123;28;20079;-79
2022/09/09 00:38:18;;;;;;;1999.90;459.25;;;15.20;99.90;;;;;;5114219;28;20047;-79
2022/09/09 00:40:55;;;;;;;1999.90;558.80;;;14.70;99.90;;;;;;5113593;28;20090;-79
2022/09/09 00:43:26;;;;;;;1986.68;794.28;;;14.50;99.90;;;;;;5113717;28;20046;-79
2022/09/09 00:45:55;;;;;;;1978.70;316.42;;;15.30;99.90;;;;;;5095763;28;20043;-79
2022/09/09 00:48:27;;;;;;;1932.38;264.70;;;15.80;99.90;;;;;;5113985;28;20043;-79
2022/09/09 00:51:15;;;;;;;1999.90;385.42;;;15.00;99.90;;;;;;5114008;28;20050;-79
2022/09/09 00:54:02;;;;;;;1999.90;414.13;;;15.20;99.90;;;;;;5113310;28;20043;-79
2022/09/09 00:56:45;;;;;;;1999.90;535.55;;;15.00;99.90;;;;;;5112926;28;20476;-79
2022/09/09 00:59:23;;;;;;;1999.90;999.90;;;14.70;99.90;;;;;;5095753;28;20131;-79
2022/09/09 01:01:50;;;;;;;1929.45;292.85;;;14.00;99.90;;;;;;5113245;28;20109;-79
2022/09/09 01:04:28;;;;;;;1949.10;788.97;;;14.50;99.90;;;;;;5113234;28;20504;-79
2022/09/09 01:07:17;;;;;;;1999.90;999.90;;;14.40;99.90;;;;;;5112691;28;20070;-79
2022/09/09 01:09:51;;;;;;;1999.90;999.90;;;15.00;99.90;;;;;;5095266;28;20051;-79
2022/09/09 01:12:26;;;;;;;1999.90;299.23;;;14.00;99.90;;;;;;5094252;28;20769;-79
2022/09/09 01:15:03;;;;;;;1999.90;354.08;;;14.40;99.90;;;;;;5113389;28;20083;-79
2022/09/09 01:17:41;;;;;;;1961.78;802.47;;;14.70;99.90;;;;;;5112491;28;20043;-79
2022/09/09 01:20:35;;;;;;;1999.90;602.38;;;13.90;99.90;;;;;;5113264;28;20096;-79
2022/09/09 01:23:27;;;;;;;1999.90;345.00;;;14.70;99.90;;;;;;5094356;28;20047;-79
2022/09/09 01:26:41;;;;;;;1999.90;472.33;;;14.30;99.90;;;;;;5094654;28;20055;-79
2022/09/09 01:29:13;;;;;;;1975.18;231.80;;;15.10;99.90;;;;;;5029354;28;20045;-79
2022/09/09 01:32:02;;;;;;;1999.90;392.35;;;14.00;99.90;;;;;;5029258;28;20041;-79
2022/09/09 01:34:33;;;;;;;;;;;15.10;99.90;;;;;;5073608;28;20059;-76
2022/09/09 01:37:11;;;;;;;1999.90;346.52;;;14.60;99.90;;;;;;5113087;28;19916;-76
2022/09/09 01:39:41;;;;;;;1999.90;537.63;;;15.20;99.90;;;;;;5112348;28;20447;-79
2022/09/09 01:42:09;;;;;;;1999.90;486.98;;;14.90;99.90;;;;;;5112216;28;20118;-79
2022/09/09 01:44:36;;;;;;;1999.90;617.45;;;15.20;99.90;;;;;;5112582;28;20051;-79
2022/09/09 01:47:02;;;;;;;1999.90;515.47;;;15.30;99.90;;;;;;5113040;28;20078;-79
2022/09/09 01:49:28;;;;;;;1999.90;426.10;;;15.20;99.90;;;;;;5112523;28;20052;-79
2022/09/09 01:51:56;;;;;;;1999.90;457.80;;;14.50;99.90;;;;;;5112615;28;20086;-79
2022/09/09 01:54:26;;;;;;;1999.90;652.63;;;14.20;99.90;;;;;;5112697;28;20039;-79
2022/09/09 01:57:19;;;;;;;1999.90;403.23;;;14.10;99.90;;;;;;5111986;28;20468;-79
2022/09/09 02:00:09;;;;;;;1999.90;548.63;;;14.30;99.90;;;;;;5112853;28;20044;-79
2022/09/09 02:02:53;;;;;;;1999.90;399.02;;;14.10;99.90;;;;;;5112792;28;20093;-79
2022/09/09 02:05:31;;;;;;;1999.90;547.35;;;14.50;99.90;;;;;;5113677;28;20044;-79
2022/09/09 02:08:14;;;;;;;1999.90;529.83;;;15.30;99.90;;;;;;5113192;28;20051;-79
2022/09/09 02:10:53;;;;;;;1999.90;547.72;;;14.20;99.90;;;;;;5112803;28;20043;-79
2022/09/09 02:13:21;;;;;;;1999.90;642.72;;;14.20;99.90;;;;;;5112536;28;20043;-79
2022/09/09 02:16:18;;;;;;;1999.90;553.25;;;14.90;99.90;;;;;;5112303;28;20096;-79
2022/09/09 02:19:13;;;;;;;1999.90;399.10;;;15.50;99.90;;;;;;5112128;28;20096;-79
2022/09/09 02:21:41;;;;;;;1999.90;557.78;;;14.30;99.90;;;;;;5112427;28;20039;-76
2022/09/09 02:24:11;;;;;;;1999.90;529.03;;;15.00;99.90;;;;;;5112323;28;20081;-77
2022/09/09 02:26:41;;;;;;;1999.90;596.83;;;15.60;99.90;;;;;;5092857;28;20047;-77
2022/09/09 02:29:13;;;;;;;1999.90;724.80;;;14.50;99.90;;;;;;5112497;28;20086;-77
2022/09/09 02:31:41;;;;;;;1999.90;505.25;;;15.60;99.90;;;;;;5112267;28;20077;-77
2022/09/09 02:34:10;;;;;;;1999.90;714.28;;;15.20;99.90;;;;;;5111798;28;20055;-76
2022/09/09 02:36:39;;;;;;;1999.90;558.30;;;14.50;99.90;;;;;;5111696;28;20039;-77
2022/09/09 02:39:07;;;;;;;1999.90;386.90;;;14.50;99.90;;;;;;5112276;28;20039;-77
2022/09/09 02:41:36;;;;;;;1999.90;498.00;;;14.50;99.90;;;;;;5112092;28;20042;-77
2022/09/09 02:44:05;;;;;;;1999.90;809.88;;;14.60;99.90;;;;;;5113098;28;20123;-78
2022/09/09 02:46:37;;;;;;;1999.90;663.85;;;14.50;99.90;;;;;;5114612;28;20049;-78
2022/09/09 02:49:11;;;;;;;1999.90;506.38;;;15.80;99.90;;;;;;5116110;28;20050;-77
2022/09/09 02:51:55;;;;;;;1999.90;620.88;;;14.50;99.90;;;;;;5115322;28;20039;-77
2022/09/09 02:54:31;;;;;;;1999.90;756.95;;;14.90;99.90;;;;;;5115044;28;20046;-77
2022/09/09 02:57:16;;;;;;;1999.90;442.83;;;15.40;99.90;;;;;;5115419;28;20035;-77
2022/09/09 02:59:44;;;;;;;1999.90;445.63;;;15.90;99.90;;;;;;5116086;28;20048;-78
2022/09/09 03:02:11;;;;;;;1999.90;467.33;;;15.50;99.90;;;;;;5116011;28;20119;-77
2022/09/09 03:04:41;;;;;;;1999.90;572.47;;;14.50;99.90;;;;;;5116698;28;20043;-79
2022/09/09 03:07:07;;;;;;;1999.90;660.72;;;14.60;99.90;;;;;;5098562;28;20074;-81
2022/09/09 03:09:32;;;;;;;1999.90;630.90;;;14.50;99.90;;;;;;5115859;28;20036;-87
2022/09/09 03:11:59;;;;;;;1999.90;553.60;;;15.40;99.90;;;;;;5114783;28;20058;-83
2022/09/09 03:14:25;;;;;;;1999.90;452.63;;;14.60;99.90;;;;;;5115749;28;20040;-82
2022/09/09 03:16:54;;;;;;;1999.90;752.78;;;14.70;99.90;;;;;;5114792;28;20160;-88
2022/09/09 03:19:20;;;;;;;1999.90;791.75;;;14.90;99.90;;;;;;5114902;28;20079;-83
2022/09/09 03:21:47;;;;;;;1999.90;698.58;;;15.40;99.90;;;;;;5114722;28;20480;-82
2022/09/09 03:24:14;;;;;;;1999.90;764.63;;;14.70;99.90;;;;;;5114414;28;20032;-81
2022/09/09 03:26:40;;;;;;;1999.90;791.90;;;16.10;99.90;;;;;;5096776;28;20050;-81
2022/09/09 03:29:07;;;;;;;1999.90;938.72;;;16.10;99.90;;;;;;5097256;28;20405;-81
2022/09/09 03:31:35;;;;;;;1999.90;806.97;;;15.80;99.90;;;;;;5114939;28;20040;-81
2022/09/09 03:34:01;;;;;;;1999.90;736.72;;;15.00;99.90;;;;;;5114654;28;20490;-81
2022/09/09 03:36:28;;;;;;;1999.90;844.40;;;15.00;99.90;;;;;;5115394;28;20475;-81
2022/09/09 03:38:54;;;;;;;1999.90;820.22;;;15.00;99.90;;;;;;5114278;28;20118;-81
2022/09/09 03:41:23;;;;;;;1999.90;737.97;;;14.80;99.90;;;;;;5115014;28;20040;-81
2022/09/09 03:43:53;;;;;;;1999.90;781.17;;;16.00;99.90;;;;;;5079780;28;20047;-81
2022/09/09 03:46:23;;;;;;;1999.90;779.72;;;15.60;99.90;;;;;;5115393;28;20043;-80
2022/09/09 03:48:48;;;;;;;1999.90;792.00;;;16.00;99.90;;;;;;5114511;28;20044;-80
2022/09/09 03:51:15;;;;;;;1999.90;865.03;;;16.10;99.90;;;;;;5115115;28;20035;-81
2022/09/09 03:53:42;;;;;;;1999.90;732.60;;;16.00;99.90;;;;;;5114719;28;20043;-82
2022/09/09 03:56:09;;;;;;;1999.90;482.85;;;14.70;99.90;;;;;;5114396;28;20283;-82
2022/09/09 03:58:36;;;;;;;1999.90;915.05;;;16.10;99.90;;;;;;5114907;28;20123;-81
2022/09/09 04:01:10;;;;;;;1999.90;624.42;;;14.80;99.90;;;;;;5114105;28;20372;-81
2022/09/09 04:03:36;;;;;;;1999.90;639.70;;;14.80;99.90;;;;;;5114893;28;20040;-80
2022/09/09 04:06:03;;;;;;;1999.90;678.25;;;16.10;99.90;;;;;;5094981;28;20046;-80
2022/09/09 04:08:33;;;;;;;1999.90;678.60;;;15.00;99.90;;;;;;5113339;28;20051;-80
2022/09/09 04:11:02;;;;;;;1999.90;700.33;;;15.80;99.90;;;;;;5112013;28;20504;-80
2022/09/09 04:13:27;;;;;;;1999.90;732.47;;;15.80;99.90;;;;;;5093804;28;20048;-81
2022/09/09 04:15:59;;;;;;;1999.90;773.05;;;16.00;99.90;;;;;;5093620;28;20051;-81
2022/09/09 04:18:25;;;;;;;1999.90;676.85;;;14.80;99.90;;;;;;5094007;28;20051;-80
2022/09/09 04:20:52;;;;;;;1999.90;979.73;;;15.90;99.90;;;;;;5093861;28;20048;-80
2022/09/09 04:23:20;;;;;;;1999.90;705.43;;;16.00;99.90;;;;;;5093186;28;20523;-80
2022/09/09 04:25:51;;;;;;;1999.90;645.17;;;15.80;99.90;;;;;;5093172;28;20293;-81
2022/09/09 04:28:19;;;;;;;1999.90;708.97;;;15.50;99.90;;;;;;5094454;28;20056;-79
2022/09/09 04:30:45;;;;;;;1999.90;692.03;;;15.70;99.90;;;;;;5094221;28;20051;-79
2022/09/09 04:33:12;;;;;;;1999.90;783.95;;;14.70;99.90;;;;;;5091826;28;20040;-79
2022/09/09 04:35:39;;;;;;;1999.90;833.42;;;15.20;99.90;;;;;;5091463;28;20127;-79
2022/09/09 04:38:07;;;;;;;1999.90;745.80;;;15.50;99.90;;;;;;5093272;28;20048;-79
2022/09/09 04:40:33;;;;;;;1999.90;620.25;;;15.60;99.90;;;;;;5092420;28;20396;-80
2022/09/09 04:42:59;;;;;;;1999.90;544.25;;;15.10;99.90;;;;;;5090569;28;20123;-79
2022/09/09 04:45:26;;;;;;;1999.90;593.55;;;14.50;99.90;;;;;;5092297;28;20051;-79
2022/09/09 04:47:52;;;;;;;1999.90;537.90;;;15.90;99.90;;;;;;5093324;28;20044;-79
2022/09/09 04:50:18;;;;;;;1999.90;819.50;;;15.10;99.90;;;;;;5093785;28;20078;-79
2022/09/09 04:52:44;;;;;;;1999.90;830.35;;;14.90;99.90;;;;;;5093110;28;20409;-80
2022/09/09 04:55:10;;;;;;;1999.90;797.28;;;14.70;99.90;;;;;;5093435;28;20047;-79
2022/09/09 04:57:35;;;;;;;1999.90;738.63;;;14.60;99.90;;;;;;5091840;28;20461;-79
2022/09/09 05:00:03;;;;;;;1999.90;605.20;;;14.60;99.90;;;;;;5091165;28;20044;-78
2022/09/09 05:02:30;;;;;;;1999.90;768.95;;;14.60;99.90;;;;;;5093212;28;20051;-79
2022/09/09 05:04:56;;;;;;;1999.90;668.33;;;15.30;99.90;;;;;;5092044;28;20047;-77
2022/09/09 05:07:22;;;;;;;1999.90;638.30;;;15.90;99.90;;;;;;5091371;28;20036;-78
2022/09/09 05:09:49;;;;;;;1999.90;585.08;;;14.70;99.90;;;;;;5093097;28;20484;-78
2022/09/09 05:12:16;;;;;;;1999.90;761.13;;;14.50;99.90;;;;;;5103539;28;20466;-78
2022/09/09 05:14:43;;;;;;;1999.90;868.78;;;15.60;99.90;;;;;;5092979;28;20109;-77
2022/09/09 05:17:09;;;;;;;1999.90;721.67;;;15.00;99.90;;;;;;5112271;28;20044;-78
2022/09/09 05:19:35;;;;;;;1999.90;637.33;;;15.70;99.90;;;;;;5078611;28;20043;-78
2022/09/09 05:22:01;;;;;;;1999.90;794.55;;;15.70;99.90;;;;;;5112312;28;20046;-78
2022/09/09 05:24:27;;;;;;;1999.90;679.85;;;15.60;99.90;;;;;;5111964;28;20051;-79
2022/09/09 05:26:52;;;;;;;1999.90;574.58;;;14.90;99.90;;;;;;5111627;28;20039;-79
2022/09/09 05:29:21;;;;;;;1999.90;601.67;;;14.50;99.90;;;;;;5112557;28;20510;-78
2022/09/09 05:31:46;;;;;;;1999.90;785.88;;;15.70;99.90;;;;;;5094253;28;20495;-79
2022/09/09 05:34:12;;;;;;;1999.90;506.50;;;15.50;99.90;;;;;;5112427;28;20126;-80
2022/09/09 05:36:38;;;;;;;1999.90;658.78;;;14.50;99.90;;;;;;5112871;28;20055;-80
2022/09/09 05:39:04;;;;;;;1999.90;683.85;;;15.80;99.90;;;;;;5112655;28;20054;-80
2022/09/09 05:41:31;;;;;;;1999.90;529.38;;;14.60;99.90;;;;;;5094934;28;20079;-79
2022/09/09 05:43:58;;;;;;;1999.90;547.00;;;15.80;99.90;;;;;;5094916;28;20047;-80
2022/09/09 05:46:25;;;;;;;1999.90;759.00;;;14.50;99.90;;;;;;5113164;28;20048;-80
2022/09/09 05:48:52;;;;;;;1999.90;531.53;;;14.50;99.90;;;;;;5095009;28;20059;-79
2022/09/09 05:51:21;;;;;;;1999.90;510.00;;;14.90;99.90;;;;;;5078256;28;20104;-80
2022/09/09 05:53:48;;;;;;;1999.90;702.60;;;14.50;99.90;;;;;;5112469;28;20508;-80
2022/09/09 05:56:19;;;;;;;1999.90;579.13;;;15.20;99.90;;;;;;5093185;28;20533;-79
2022/09/09 05:58:46;;;;;;;1999.90;663.50;;;15.70;99.90;;;;;;5111931;28;20054;-81
2022/09/09 06:01:21;;;;;;;1999.90;589.15;;;14.80;99.90;;;;;;5112741;28;20065;-79
2022/09/09 06:03:48;;;;;;;1999.90;684.03;;;14.50;99.90;;;;;;5077767;28;20043;-79
2022/09/09 06:06:26;;;;;;;1999.90;711.88;;;14.70;99.90;;;;;;5112168;28;20043;-80
2022/09/09 06:08:54;;;;;;;1999.90;731.53;;;14.50;99.90;;;;;;5111850;28;20052;-80
2022/09/09 06:11:26;;;;;;;1999.90;654.83;;;15.50;99.90;;;;;;5111280;28;20051;-78
2022/09/09 06:13:53;;;;;;;1999.90;843.90;;;14.60;99.90;;;;;;5112617;28;20036;-78
2022/09/09 06:16:23;;;;;;;1999.90;606.42;;;14.60;99.90;;;;;;5077930;28;20044;-78
2022/09/09 06:18:50;;;;;;;1999.90;859.65;;;15.50;99.90;;;;;;5113679;28;20094;-77
2022/09/09 06:21:27;;;;;;;1999.90;543.15;;;14.60;99.90;;;;;;5116957;28;20040;-77
2022/09/09 06:23:53;;;;;;;1999.90;622.47;;;15.60;99.90;;;;;;5116985;28;20043;-78
2022/09/09 06:26:25;;;;;;;1999.90;622.90;;;15.70;99.90;;;;;;5098665;28;20101;-78
2022/09/09 06:28:52;;;;;;;1999.90;829.90;;;15.10;99.90;;;;;;5116991;28;20054;-78
2022/09/09 06:31:21;;;;;;;1999.90;670.55;;;14.70;99.90;;;;;;5098530;28;20047;-78
2022/09/09 06:33:49;;;;;;;1999.90;813.03;;;16.00;99.90;;;;;;5116432;28;20043;-78
2022/09/09 06:36:20;;;;;;;1999.90;456.95;;;16.10;99.90;;;;;;5116520;28;20044;-78
2022/09/09 06:38:46;;;;;;;1999.90;725.80;;;14.80;99.90;;;;;;5116868;28;20445;-77
2022/09/09 06:41:15;;;;;;;1999.90;707.13;;;14.90;99.90;;;;;;5098275;28;20047;-77
2022/09/09 06:43:41;;;;;;;1999.90;807.80;;;15.70;99.90;;;;;;5116402;28;20044;-77
2022/09/09 06:46:13;;;;;;;1999.90;753.95;;;14.90;99.90;;;;;;5116461;28;20047;-77
2022/09/09 06:48:42;;;;;;;1999.90;683.75;;;14.90;99.90;;;;;;5116764;28;20051;-77
2022/09/09 06:51:11;;;;;;;1999.90;810.65;;;16.10;99.90;;;;;;5116274;28;20052;-77
2022/09/09 06:53:38;;;;;;;1999.90;561.00;;;15.00;99.90;;;;;;5116585;28;20047;-77
2022/09/09 06:56:09;;;;;;;1999.90;711.88;;;15.80;99.90;;;;;;5097692;28;20096;-78
2022/09/09 06:58:43;;;;;;;1999.90;588.97;;;14.90;99.90;;;;;;5116262;28;20059;-78
2022/09/09 07:01:12;;;;;;;1999.90;738.40;;;15.90;99.90;;;;;;5116565;28;20062;-77
2022/09/09 07:03:38;;;;;;;1999.90;763.20;;;15.80;99.90;;;;;;5116486;28;20104;-78
2022/09/09 07:06:05;;;;;;;1999.90;716.30;;;16.40;99.90;;;;;;5115935;28;20154;-78
2022/09/09 07:08:31;;;;;;;1999.90;613.92;;;16.50;99.90;;;;;;5116312;28;20050;-78
2022/09/09 07:11:05;;;;;;;1999.90;654.13;;;15.70;99.90;;;;;;5095990;28;20400;-78
2022/09/09 07:13:31;;;;;;;1999.90;780.85;;;15.30;99.90;;;;;;5058068;28;20052;-78
2022/09/09 07:16:11;;;;;;;1999.90;767.47;;;16.10;99.90;;;;;;5075045;28;20132;-78
2022/09/09 07:18:37;;;;;;;1999.90;751.75;;;16.60;99.90;;;;;;5075518;28;20044;-79
2022/09/09 07:21:03;;;;;;;1999.90;654.40;;;16.00;99.90;;;;;;5074780;28;20547;-79
2022/09/09 07:23:30;;;;;;;1999.90;673.47;;;15.80;99.90;;;;;;5057796;28;20045;-78
2022/09/09 07:25:59;;;;;;;1999.90;664.58;;;16.90;99.90;;;;;;5074853;28;20045;-78
2022/09/09 07:28:26;;;;;;;1999.90;700.67;;;15.80;99.90;;;;;;5072940;28;20552;-78
2022/09/09 07:31:03;;;;;;;1999.90;653.58;;;16.70;99.90;;;;;;5073551;28;20052;-78
2022/09/09 07:33:30;;;;;;;1999.90;590.72;;;16.60;99.90;;;;;;5074913;28;20122;-78
2022/09/09 07:36:06;;;;;;;1999.90;408.95;;;17.00;99.90;;;;;;5074944;28;20045;-78
2022/09/09 07:38:38;;;;;;;1999.90;575.08;;;17.00;99.90;;;;;;5074203;28;20055;-78
2022/09/09 07:41:11;;;;;;;1835.30;298.75;;;16.40;99.90;;;;;;5074873;28;20136;-78
2022/09/09 07:43:39;;;;;;;1999.90;569.22;;;17.10;99.90;;;;;;5075252;28;20040;-78
2022/09/09 07:46:06;;;;;;;1999.90;553.70;;;17.80;99.90;;;;;;5073700;28;20044;-78
2022/09/09 07:48:32;;;;;;;1999.90;360.52;;;17.80;99.90;;;;;;5073852;28;20048;-78
2022/09/09 07:51:11;;;;;;;1984.40;251.40;;;17.50;99.90;;;;;;5073942;28;20189;-78
2022/09/09 07:53:38;;;;;;;1999.90;999.90;;;19.50;99.90;;;;;;5073841;28;20072;-78
2022/09/09 07:56:09;;;;;;;1999.90;999.90;;;18.50;99.90;;;;;;5073494;28;20049;-79
2022/09/09 07:58:36;;;;;;;1999.90;999.90;;;18.50;99.90;;;;;;5074444;28;20167;-77
2022/09/09 08:01:11;;;;;;;1999.90;999.90;;;18.00;99.90;;;;;;5073813;28;20059;-77
2022/09/09 08:03:37;;;;;;;1999.90;999.90;;;19.10;99.90;;;;;;5074614;28;20378;-77
2022/09/09 08:06:06;;;;;;;1999.90;999.90;;;19.40;99.90;;;;;;5090495;28;20048;-77
2022/09/09 08:08:31;;;;;;;1999.90;999.90;;;19.00;99.90;;;;;;5073829;28;20496;-77
2022/09/09 08:11:07;;;;;;;1835.88;775.75;;;18.40;99.90;;;;;;5073313;28;20102;-76
2022/09/09 08:13:34;;;;;;;1999.90;999.90;;;18.30;99.90;;;;;;5094084;28;20051;-77
2022/09/09 08:16:08;;;;;;;1999.90;999.90;;;18.10;99.90;;;;;;5094532;28;20048;-77
2022/09/09 08:18:35;;;;;;;1999.90;999.90;;;18.70;99.90;;;;;;5094245;28;20051;-77
2022/09/09 08:21:13;;;;;;;1999.90;999.90;;;17.80;99.90;;;;;;5094570;28;20119;-77
2022/09/09 08:23:43;;;;;;;1999.90;999.90;;;18.20;99.90;;;;;;5076468;28;20060;-77
2022/09/09 08:26:14;;;;;;;1999.90;637.92;;;17.90;99.90;;;;;;5093160;28;20131;-76
2022/09/09 08:28:41;;;;;;;1999.90;999.90;;;17.40;99.90;;;;;;5076059;28;20144;-76
2022/09/09 08:31:13;;;;;;;1999.90;999.90;;;17.60;99.90;;;;;;5094096;28;20048;-76
2022/09/09 08:33:40;;;;;;;1999.90;182.07;;;18.60;99.90;;;;;;5076393;28;20381;-76
2022/09/09 08:36:09;;;;;;;1999.90;999.90;;;18.90;99.90;;;;;;5094415;28;20059;-76
2022/09/09 08:38:35;;;;;;;1999.90;999.90;;;19.20;99.90;;;;;;5092828;28;20052;-76
2022/09/09 08:41:07;;;;;;;1999.90;999.90;;;19.00;99.90;;;;;;5093617;28;20044;-77
2022/09/09 08:43:33;;;;;;;1999.90;999.90;;;20.20;99.90;;;;;;5093293;28;20058;-76
2022/09/09 08:46:23;;;;;;;1999.90;999.90;;;20.00;99.90;;;;;;5076192;28;20075;-77
2022/09/09 08:48:56;;;;;;;1999.90;999.90;;;20.20;99.90;;;;;;5092774;28;20059;-76
2022/09/09 08:51:25;;;;;;;1999.90;999.90;;;20.80;99.90;;;;;;5093641;28;20048;-76
2022/09/09 08:53:52;;;;;;;1999.90;999.90;;;21.70;99.90;;;;;;5093836;28;20055;-76
2022/09/09 08:56:23;;;;;;;1999.90;999.90;;;21.40;99.90;;;;;;5093303;28;20106;-77
2022/09/09 08:58:53;;;;;;;1999.90;999.90;;;21.60;99.90;;;;;;5092889;28;20051;-77
2022/09/09 09:01:39;;;;;;;1333.85;167.93;;;21.90;99.90;;;;;;5093565;28;20046;-76
2022/09/09 09:04:27;;;;;;;1999.90;999.90;;;21.60;99.90;;;;;;5092815;28;20048;-77
2022/09/09 09:07:48;;;;;;;1321.25;521.85;;;21.60;99.90;;;;;;5093401;28;20044;-77
2022/09/09 09:10:42;;;;;;;1999.90;999.90;;;22.20;99.90;;;;;;5014352;28;20057;-76
2022/09/09 09:13:33;;;;;;;1999.90;999.90;;;22.00;99.90;;;;;;5078126;28;20075;-77
2022/09/09 09:16:09;;;;;;;1999.90;999.90;;;21.30;99.90;;;;;;5113686;28;20082;-77
2022/09/09 09:18:35;;;;;;;1999.90;999.90;;;20.90;99.90;;;;;;5113536;28;20477;-76
2022/09/09 09:21:21;;;;;;;1999.90;999.90;;;20.70;99.90;;;;;;5095448;28;20047;-77
2022/09/09 09:23:58;;;;;;;1999.90;999.90;;;20.60;99.90;;;;;;5113919;28;20050;-77
2022/09/09 09:26:30;;;;;;;1999.90;999.90;;;20.50;99.90;;;;;;5112870;28;20051;-77
2022/09/09 09:28:58;;;;;;;1999.90;999.90;;;20.30;99.90;;;;;;5113811;28;20134;-77
2022/09/09 09:31:26;;;;;;;1999.90;999.90;;;20.30;99.90;;;;;;5113065;28;20122;-77
2022/09/09 09:33:56;;;;;;;1999.90;999.90;;;20.30;99.90;;;;;;5113689;28;20047;-76
2022/09/09 09:36:46;;;;;;;1999.90;999.90;;;20.30;99.90;;;;;;5113177;28;20044;-77
2022/09/09 09:39:23;;;;;;;1999.90;999.90;;;20.60;99.90;;;;;;5113502;28;20131;-76
2022/09/09 09:41:49;;;;;;;1999.90;999.90;;;20.90;99.90;;;;;;5078071;28;20089;-77
2022/09/09 09:44:32;;;;;;;1999.90;999.90;;;21.30;99.90;;;;;;5095565;28;20047;-77
2022/09/09 09:47:16;;;;;;;1999.90;999.90;;;21.30;99.90;;;;;;5113331;28;20122;-76
2022/09/09 09:50:19;;;;;;;1999.90;999.90;;;21.50;99.90;;;;;;5113081;28;20040;-76
2022/09/09 09:52:57;;;;;;;1999.90;999.90;;;21.60;99.90;;;;;;5081016;28;20105;-76
2022/09/09 09:55:31;;;;;;;1999.90;999.90;;;21.70;99.90;;;;;;5096165;28;20624;-77
2022/09/09 09:58:04;;;;;;;;;;;21.80;99.90;;;;;;5095349;28;20096;-76
2022/09/09 10:00:29;;;;;;;1999.90;999.90;;;21.30;99.90;;;;;;5111777;28;19920;-76
2022/09/09 10:02:56;;;;;;;1999.90;756.95;;;20.70;99.90;;;;;;5112941;28;20046;-76
2022/09/09 10:05:29;;;;;;;1999.90;809.95;;;20.20;99.90;;;;;;5077831;28;20051;-76
2022/09/09 10:08:11;;;;;;;1999.90;911.55;;;20.20;99.90;;;;;;5112202;28;20044;-76
2022/09/09 10:10:52;;;;;;;1999.90;908.42;;;20.00;99.90;;;;;;5112626;28;20104;-76
2022/09/09 10:13:29;;;;;;;1999.90;899.15;;;19.90;99.90;;;;;;5112976;28;20511;-77
2022/09/09 10:16:28;;;;;;;1999.90;999.90;;;19.80;99.90;;;;;;5112852;28;20040;-77
2022/09/09 10:19:06;;;;;;;1999.90;999.90;;;19.90;99.90;;;;;;5094967;28;20400;-76
2022/09/09 10:21:49;;;;;;;1999.90;999.90;;;20.90;99.90;;;;;;5112550;28;20126;-76
2022/09/09 10:24:27;;;;;;;1999.90;999.90;;;22.30;99.90;;;;;;5112931;28;20488;-76
2022/09/09 10:27:31;;;;;;;1999.90;999.90;;;23.10;99.90;;;;;;5112407;28;20134;-76
2022/09/09 10:30:29;;;;;;;1999.90;999.90;;;23.00;99.90;;;;;;5108255;28;20048;-76
2022/09/09 10:33:21;;;;;;;1999.90;999.90;;;23.40;99.90;;;;;;5055333;28;20043;-76
2022/09/09 10:36:10;;;;;;;1999.90;999.90;;;24.00;99.90;;;;;;5112717;28;20048;-77
2022/09/09 10:38:41;;;;;;;1999.90;999.90;;;23.90;99.90;;;;;;5111332;28;20483;-77
2022/09/09 10:41:18;;;;;;;1999.90;999.90;;;23.40;99.90;;;;;;5112425;28;20063;-77
2022/09/09 10:44:21;;;;;;;1311.82;591.60;;;22.60;99.90;;;;;;5112334;28;20063;-77
2022/09/09 10:47:05;;;;;;;1999.90;999.90;;;22.00;99.90;;;;;;5112480;28;20048;-77
2022/09/09 10:49:58;;;;;;;1999.90;999.90;;;21.30;99.90;;;;;;5112244;28;20063;-77
2022/09/09 10:52:36;;;;;;;1999.90;999.90;;;21.00;99.90;;;;;;5112296;28;20043;-77
2022/09/09 10:55:14;;;;;;;1999.90;999.90;;;21.20;99.90;;;;;;5094612;28;20043;-75
2022/09/09 10:57:45;;;;;;;1999.90;999.90;;;22.10;99.90;;;;;;5112189;28;20134;-74
2022/09/09 11:00:19;;;;;;;1192.78;392.73;;;22.50;99.90;;;;;;5112485;28;20426;-74
2022/09/09 11:02:52;;;;;;;1999.90;999.90;;;21.90;99.90;;;;;;5112331;28;20043;-75
2022/09/09 11:05:21;;;;;;;1999.90;999.90;;;22.00;99.90;;;;;;5096160;28;20059;-75
2022/09/09 11:07:52;;;;;;;1999.90;999.90;;;22.60;99.90;;;;;;5098165;28;20403;-76
2022/09/09 11:10:43;;;;;;;1999.90;999.90;;;22.80;99.90;;;;;;5116060;28;20051;-75
2022/09/09 11:13:34;;;;;;;1999.90;999.90;;;22.10;99.90;;;;;;5116239;28;20074;-75
2022/09/09 11:16:12;;;;;;;1999.90;999.90;;;22.30;99.90;;;;;;5098409;28;20051;-75
2022/09/09 11:18:41;;;;;;;1999.90;999.90;;;21.90;99.90;;;;;;5115516;28;20046;-74
2022/09/09 11:21:17;;;;;;;1999.90;999.90;;;21.90;99.90;;;;;;5115935;28;20044;-75
2022/09/09 11:23:48;;;;;;;1999.90;999.90;;;21.80;99.90;;;;;;5097832;28;20126;-75
2022/09/09 11:26:27;;;;;;;1999.90;999.90;;;22.00;99.90;;;;;;5116003;28;20047;-74
2022/09/09 11:29:27;;;;;;;1999.90;999.90;;;21.80;99.90;;;;;;5116068;28;20047;-75
2022/09/09 11:32:12;;;;;;;1999.90;999.90;;;21.90;99.90;;;;;;5115616;28;20127;-75
2022/09/09 11:34:59;;;;;;;1999.90;999.90;;;21.40;99.90;;;;;;5097574;28;20400;-75
2022/09/09 11:38:01;;;;;;;1999.90;999.90;;;21.20;99.90;;;;;;5115650;28;20079;-75
2022/09/09 11:40:28;;;;;;;1999.90;999.90;;;21.10;99.90;;;;;;5101690;28;20090;-75
2022/09/09 11:43:11;;;;;;;1999.90;999.90;;;21.10;99.90;;;;;;5114729;28;20045;-75
2022/09/09 11:45:37;;;;;;;1999.90;999.90;;;20.90;99.90;;;;;;5114388;28;20078;-75
2022/09/09 11:48:05;;;;;;;1278.20;552.10;;;21.10;99.90;;;;;;5115654;28;20105;-75
2022/09/09 11:50:31;;;;;;;1999.90;999.90;;;21.00;99.90;;;;;;5115268;28;20039;-77
2022/09/09 11:53:23;;;;;;;1999.90;999.90;;;21.10;99.90;;;;;;5115086;28;20050;-76
2022/09/09 11:56:08;;;;;;;1999.90;999.90;;;21.30;99.90;;;;;;5111009;28;20064;-75
2022/09/09 11:58:40;;;;;;;1999.90;999.90;;;20.90;99.90;;;;;;5114832;28;20055;-75
2022/09/09 12:01:28;;;;;;;1999.90;999.90;;;20.70;99.90;;;;;;5115484;28;20047;-75
2022/09/09 12:04:08;;;;;;;1999.90;999.90;;;20.70;99.90;;;;;;5096965;28;20145;-77
2022/09/09 12:06:49;;;;;;;1999.90;999.90;;;20.40;99.90;;;;;;5114966;28;20044;-78
2022/09/09 12:09:43;;;;;;;1999.90;999.90;;;19.20;99.90;;;;;;5114372;28;20188;-77
2022/09/09 12:12:11;;;;;;;1999.90;999.90;;;20.40;99.90;;;;;;5114024;28;20147;-77
2022/09/09 12:14:54;;;;;;;1753.07;772.28;;;20.50;99.90;;;;;;5114832;28;20052;-77
2022/09/09 12:17:22;;;;;;;1999.90;999.90;;;19.00;99.90;;;;;;5115038;28;20131;-76
2022/09/09 12:20:05;;;;;;;1867.53;801.50;;;19.90;99.90;;;;;;5096502;28;20500;-76
2022/09/09 12:22:45;;;;;;;1999.90;856.83;;;19.90;99.90;;;;;;5114459;28;20512;-75
2022/09/09 12:25:32;;;;;;;1791.93;802.85;;;20.40;99.90;;;;;;5114753;28;20046;-76
2022/09/09 12:28:40;;;;;;;1514.93;587.42;;;18.90;99.90;;;;;;5114442;28;20051;-76
2022/09/09 12:31:21;;;;;;;1999.90;999.90;;;19.70;99.90;;;;;;5114269;28;20063;-76
2022/09/09 12:33:47;;;;;;;1909.07;194.50;;;19.00;99.90;;;;;;5114159;28;20415;-76